Stations météo

Publicité
Toulon/Ile du Levant, France (7678): Température de l'air & dewpoint: 16.07.2018 10:00:00 - 22.07.2018 10:00:00 (CEST)Toulon/Ile du Levant, France (7678): Vitesse du vent & gusts: 16.07.2018 10:00:00 - 22.07.2018 10:00:00 (CEST)Toulon/Ile du Levant, France (7678): Direction du vent: 16.07.2018 10:00:00 - 22.07.2018 10:00:00 (CEST)Toulon/Ile du Levant, France (7678): reduced air pressure: 16.07.2018 10:00:00 - 22.07.2018 10:00:00 (CEST)Toulon/Ile du Levant, France (7678): Quantités de précipitations: 16.07.2018 10:00:00 - 22.07.2018 10:00:00 (CEST)
Date & Time tt [°C] td [°C] ff [km/h] ff [knt] fx [km/h] fx [knt] dd ppp [hPa] rr [mm]
22.07.2018 10:00:00 23,8 17,1 21 11 26 14 W 1011,0 0,0
22.07.2018 09:00:00 23,5 15,5 15 8 26 14 W 1010,9 0,0
22.07.2018 08:00:00 22,7 16,9 16 9 22 12 W 1010,6 -
22.07.2018 07:00:00 21,9 16,2 9 5 16 9 WNW 1010,5 0,0
22.07.2018 06:00:00 21,9 15,3 4 2 21 11 WNW 1010,4 0,0
22.07.2018 05:00:00 22,2 16,0 15 8 22 12 WNW 1010,3 -
22.07.2018 04:00:00 22,6 15,4 18 10 26 14 WNW 1010,2 0,0
22.07.2018 03:00:00 22,7 17,8 18 10 29 16 W 1010,4 0,0
22.07.2018 02:00:00 23,1 18,0 18 10 29 16 W 1010,8 -
22.07.2018 01:00:00 23,2 17,9 21 11 37 20 W 1010,8 0,0
22.07.2018 00:00:00 23,6 16,9 26 14 48 26 W 1010,7 0,0
21.07.2018 23:00:00 24,1 16,1 35 19 54 29 W 1010,8 -
21.07.2018 22:00:00 24,1 18,1 37 20 63 34 W 1010,1 0,0
21.07.2018 21:00:00 24,5 17,2 46 25 68 37 W 1009,3 0,0
21.07.2018 20:00:00 25,3 17,2 44 24 70 38 W 1008,8 -
21.07.2018 19:00:00 25,6 19,0 41 22 61 33 W 1008,6 0,0
21.07.2018 18:00:00 26,5 18,4 39 21 57 31 W 1008,9 0,0
21.07.2018 17:00:00 26,8 19,4 34 18 50 27 W 1009,3 -
21.07.2018 16:00:00 26,3 19,7 31 17 48 26 W 1009,6 0,0
21.07.2018 15:00:00 27,3 19,6 26 14 37 20 W 1010,1 0,0
21.07.2018 14:00:00 28,4 17,0 18 10 34 18 WSW 1010,2 -
21.07.2018 13:00:00 27,0 18,3 18 10 26 14 W 1010,6 0,0
21.07.2018 12:00:00 26,7 16,3 15 8 24 13 W 1010,5 0,0
21.07.2018 11:00:00 26,6 13,7 8 4 13 7 WNW 1010,6 -
21.07.2018 10:00:00 25,5 14,9 9 5 24 13 NW 1010,4 0,0
21.07.2018 09:00:00 24,2 17,0 18 10 34 18 WNW 1010,3 0,0
21.07.2018 08:00:00 23,1 17,3 29 16 41 22 NW 1010,0 -
21.07.2018 07:00:00 22,2 17,8 16 9 24 13 W 1009,8 0,0
21.07.2018 06:00:00 22,4 17,1 4 2 13 7 W 1009,7 0,0
21.07.2018 05:00:00 22,3 17,7 11 6 48 26 WNW 1010,4 -
21.07.2018 04:00:00 23,2 20,2 29 16 44 24 W 1011,3 0,0
21.07.2018 03:00:00 23,1 20,1 21 11 28 15 W 1011,1 0,0
21.07.2018 02:00:00 23,3 19,2 18 10 24 13 W 1011,5 -
21.07.2018 01:00:00 23,2 18,7 16 9 26 14 W 1011,7 0,0
21.07.2018 00:00:00 23,1 21,0 13 7 21 11 W 1011,3 0,0
20.07.2018 23:00:00 23,5 21,6 16 9 26 14 WNW 1011,1 -
20.07.2018 22:00:00 23,6 20,9 15 8 22 12 W 1011,4 0,0
20.07.2018 21:00:00 24,0 19,9 13 7 31 17 W 1011,5 0,0
20.07.2018 20:00:00 25,4 19,8 21 11 31 17 W 1011,4 -
20.07.2018 19:00:00 26,8 20,9 15 8 31 17 W 1011,8 0,0
20.07.2018 18:00:00 26,9 18,7 24 13 44 24 WSW 1012,3 0,0
20.07.2018 17:00:00 27,4 20,5 21 11 39 21 W 1012,8 -
20.07.2018 16:00:00 27,1 22,1 22 12 37 20 WSW 1013,1 0,0
20.07.2018 15:00:00 27,4 22,1 16 9 29 16 SW 1013,1 0,0
20.07.2018 14:00:00 26,9 21,6 15 8 28 15 SW 1013,2 -
20.07.2018 13:00:00 26,9 21,0 13 7 24 13 WNW 1013,8 0,0
20.07.2018 12:00:00 26,3 21,7 16 9 24 13 W 1014,1 0,0
20.07.2018 11:00:00 25,1 21,4 16 9 22 12 W 1013,8 -
20.07.2018 10:00:00 24,5 21,0 13 7 18 10 W 1014,1 0,0
20.07.2018 09:00:00 23,9 20,4 15 8 21 11 WNW 1013,9 0,0
20.07.2018 08:00:00 23,0 20,5 16 9 24 13 W 1013,5 -
20.07.2018 07:00:00 22,6 20,5 21 11 26 14 WNW 1013,5 0,0
20.07.2018 06:00:00 22,5 19,9 21 11 26 14 W 1013,3 0,0
20.07.2018 05:00:00 22,3 17,9 18 10 22 12 W 1013,3 -
20.07.2018 04:00:00 22,5 19,1 16 9 31 17 W 1013,6 0,0
20.07.2018 03:00:00 22,7 18,5 21 11 31 17 W 1013,7 0,0
20.07.2018 02:00:00 22,9 18,9 24 13 37 20 W 1013,9 -
20.07.2018 01:00:00 23,0 19,8 22 12 31 17 W 1014,1 0,0
20.07.2018 00:00:00 22,8 19,0 22 12 31 17 W 1014,0 0,0
19.07.2018 23:00:00 22,7 19,3 18 10 24 13 W 1013,8 -
19.07.2018 22:00:00 22,6 18,4 15 8 21 11 W 1013,9 0,0
19.07.2018 21:00:00 23,6 18,9 16 9 28 15 W 1013,5 0,0
19.07.2018 20:00:00 24,9 18,3 21 11 29 16 W 1013,3 -
19.07.2018 19:00:00 25,9 19,8 18 10 31 17 W 1013,3 0,0
19.07.2018 18:00:00 25,9 20,7 21 11 35 19 W 1013,5 0,0
19.07.2018 17:00:00 26,5 19,4 22 12 34 18 WSW 1013,6 -
19.07.2018 16:00:00 25,7 19,3 18 10 31 17 SW 1013,9 0,0
19.07.2018 15:00:00 25,9 19,1 15 8 28 15 SW 1014,0 0,0
19.07.2018 14:00:00 27,0 18,0 11 6 24 13 SSW 1014,3 -
19.07.2018 13:00:00 26,6 20,7 9 5 21 11 S 1014,5 0,0
19.07.2018 12:00:00 26,1 21,7 9 5 18 10 SSE 1014,3 0,0
19.07.2018 11:00:00 26,8 21,3 11 6 21 11 E 1014,1 -
19.07.2018 10:00:00 26,1 20,9 11 6 18 10 ESE 1014,0 0,0
19.07.2018 09:00:00 25,4 20,9 9 5 21 11 ENE 1013,9 0,0
19.07.2018 08:00:00 24,3 20,8 9 5 18 10 ENE 1013,6 -
19.07.2018 07:00:00 23,2 19,6 13 7 24 13 ENE 1013,1 0,0
19.07.2018 06:00:00 22,8 18,6 16 9 26 14 NW 1012,8 0,0
19.07.2018 05:00:00 23,8 15,8 18 10 26 14 W 1012,4 -
19.07.2018 04:00:00 23,9 14,3 13 7 28 15 W 1012,6 0,0
19.07.2018 03:00:00 24,0 16,3 21 11 29 16 W 1012,9 0,0
19.07.2018 02:00:00 24,2 15,4 22 12 35 19 WNW 1013,5 -
19.07.2018 01:00:00 24,3 18,0 26 14 41 22 WNW 1014,0 0,0
19.07.2018 00:00:00 24,6 17,6 29 16 44 24 W 1014,4 0,0
18.07.2018 23:00:00 24,7 17,2 28 15 42 23 W 1014,3 -
18.07.2018 22:00:00 24,4 17,6 22 12 29 16 W 1013,7 0,0
18.07.2018 21:00:00 24,6 17,3 21 11 26 14 W 1013,1 0,0
18.07.2018 20:00:00 25,8 19,7 18 10 24 13 W 1012,8 -
18.07.2018 19:00:00 26,8 19,9 16 9 24 13 W 1013,0 0,0
18.07.2018 18:00:00 28,0 19,2 11 6 24 13 W 1013,6 0,0
18.07.2018 17:00:00 27,5 20,1 13 7 22 12 SW 1013,7 -
18.07.2018 16:00:00 27,9 21,0 8 4 16 9 WNW 1014,0 0,0
18.07.2018 15:00:00 27,6 21,2 11 6 18 10 S 1014,3 0,0
18.07.2018 14:00:00 26,3 21,1 9 5 21 11 SSE 1014,6 -
18.07.2018 13:00:00 27,3 21,3 13 7 24 13 ESE 1014,7 0,0
18.07.2018 12:00:00 27,2 21,7 13 7 26 14 ESE 1015,0 0,0
18.07.2018 11:00:00 27,2 21,7 18 10 34 18 E 1014,7 -
18.07.2018 10:00:00 25,8 20,8 21 11 35 19 E 1014,6 0,0
18.07.2018 09:00:00 25,3 20,1 21 11 31 17 E 1014,5 0,0
18.07.2018 08:00:00 24,4 19,5 16 9 24 13 E 1014,1 -
18.07.2018 07:00:00 22,9 18,7 13 7 18 10 E 1013,9 0,0
18.07.2018 06:00:00 22,3 20,8 15 8 18 10 E 1013,7 0,0
18.07.2018 05:00:00 23,1 21,4 9 5 11 6 E 1013,3 -
18.07.2018 04:00:00 23,6 20,5 5 3 8 4 SE 1013,4 0,0
18.07.2018 03:00:00 24,5 18,0 0 0 8 4 N 1013,3 0,0
18.07.2018 02:00:00 24,3 21,2 4 2 9 5 WNW 1013,6 -
18.07.2018 01:00:00 24,6 17,3 2 1 11 6 SE 1013,7 0,0
18.07.2018 00:00:00 24,3 20,6 5 3 9 5 NW 1013,6 0,0
17.07.2018 23:00:00 24,8 19,6 5 3 11 6 WNW 1013,4 -
17.07.2018 22:00:00 24,9 18,1 9 5 11 6 E 1013,0 0,0
17.07.2018 21:00:00 25,8 19,0 8 4 15 8 SE 1012,4 0,0
17.07.2018 20:00:00 27,5 17,4 9 5 15 8 W 1012,1 -
17.07.2018 19:00:00 28,4 18,5 9 5 15 8 WNW 1012,3 0,0
17.07.2018 18:00:00 29,0 18,5 5 3 13 7 W 1012,2 0,0
17.07.2018 17:00:00 27,9 18,0 8 4 16 9 WNW 1012,5 -
17.07.2018 16:00:00 27,6 19,1 9 5 16 9 WNW 1012,8 0,0
17.07.2018 15:00:00 27,9 17,4 11 6 18 10 W 1012,7 0,0
17.07.2018 14:00:00 27,6 16,9 9 5 15 8 NW 1012,9 -
17.07.2018 13:00:00 26,4 17,2 9 5 16 9 SSE 1013,1 0,0
17.07.2018 12:00:00 26,9 16,5 2 1 15 8 SSE 1013,0 0,0
17.07.2018 11:00:00 25,4 16,5 9 5 21 11 NW 1012,6 -
17.07.2018 10:00:00 24,3 16,8 15 8 21 11 WNW 1012,3 0,0
17.07.2018 09:00:00 24,1 17,3 8 4 13 7 SSE 1012,1 0,0
17.07.2018 08:00:00 23,4 17,2 5 3 13 7 ESE 1011,9 -
17.07.2018 07:00:00 22,3 15,6 11 6 24 13 WNW 1011,5 0,0
17.07.2018 06:00:00 21,9 17,5 18 10 28 15 WNW 1011,0 0,0
17.07.2018 05:00:00 22,1 16,8 22 12 31 17 WNW 1010,6 -
17.07.2018 04:00:00 21,8 17,2 18 10 29 16 W 1010,5 0,0
17.07.2018 03:00:00 21,3 17,3 21 11 34 18 WNW 1010,6 0,0
17.07.2018 02:00:00 20,4 18,5 21 11 26 14 WNW 1010,5 -
17.07.2018 01:00:00 20,2 19,0 18 10 34 18 WNW 1010,5 0,0
17.07.2018 00:00:00 19,6 17,9 24 13 34 18 W 1010,8 0,0
16.07.2018 23:00:00 18,8 17,1 21 11 34 18 WNW 1010,7 -
16.07.2018 22:00:00 18,9 16,5 21 11 31 17 WNW 1010,8 0,0
16.07.2018 21:00:00 18,6 16,0 21 11 29 16 WNW 1009,8 0,0
16.07.2018 20:00:00 18,5 16,1 18 10 28 15 WNW 1009,9 -
16.07.2018 19:00:00 18,5 16,3 13 7 21 11 NW 1009,4 1,0
16.07.2018 18:00:00 18,2 16,4 11 6 35 19 ENE 1008,9 1,0
16.07.2018 17:00:00 17,8 16,1 22 12 42 23 NE 1008,8 -
16.07.2018 16:00:00 17,4 16,4 18 10 76 41 SE 1008,6 15,0
16.07.2018 15:00:00 24,2 22,3 26 14 46 25 E 1008,8 0,0
16.07.2018 14:00:00 25,1 22,8 35 19 50 27 E 1008,4 -
16.07.2018 13:00:00 25,7 22,4 24 13 41 22 E 1010,0 0,0
16.07.2018 12:00:00 27,6 23,0 24 13 41 22 E 1008,8 0,0
16.07.2018 11:00:00 26,9 22,9 18 10 37 20 ESE 1009,7 -
16.07.2018 10:00:00 24,7 22,6 24 13 34 18 E 1010,0 0,0

tt = Température de l'air
td = dewpoint
ff = Vitesse du vent
fx = gusts
dd = Direction du vent
ppp = reduced air pressure
rr = Quantités de précipitations

stations d'obs. à proximité